Sea Duck — 9HA3668 — position and weather

sailwx.info

Track history (hours):
 
Tides and Currents Weather Stations Pressure Air Temp Water Temp Dewpoint Dewpoint Depression Visibility Wind Speed Wind Dir Waves Ship Positions

Sea Duck

Last reported at 2017-Sep-13 22:19 UTC. Time now 2017-Sep-22 02:44 UTC.
Position N 06°01' E 001°13'.
Warning: this ship's position is 8 days out of date.

Length 120 m; draft 7.8 m.

Type: Ship (hazmat cat B). MMSI: 229858000.

Date/timePositionNaut miles runAvg speedWind from/ knotsBaromVisibWave heightAir tempDewpointWater temp
2017-Sep-13 22:19N 06°01' E 001°13'  
2017-Sep-10 01:10N 06°00' E 001°16'0 0.0
2017-Sep-10 00:58N 06°00' E 001°16'0 0.0
2017-Sep-10 00:28N 06°00' E 001°16'0 0.0
2017-Sep-09 23:37N 06°00' E 001°16'0 0.6
2017-Sep-09 23:28N 06°00' E 001°16'1 3.1
2017-Sep-09 23:01N 06°01' E 001°17'1 2.2
2017-Sep-09 22:29N 06°01' E 001°18'0 0.0
2017-Sep-09 21:59N 06°01' E 001°18'0 0.0
2017-Sep-09 21:29N 06°01' E 001°18'0 0.0
2017-Sep-09 20:41N 06°01' E 001°18'0 0.0
2017-Sep-09 20:26N 06°01' E 001°18'0 0.0
2017-Sep-09 19:56N 06°01' E 001°18'0 0.0
2017-Sep-09 19:29N 06°01' E 001°18'0 0.0
2017-Sep-09 18:26N 06°01' E 001°18'0 0.0
2017-Sep-09 17:59N 06°01' E 001°18'0 0.0
2017-Sep-09 15:50N 06°01' E 001°18'4 0.2
2017-Sep-08 23:19N 06°04' E 001°17'  
2017-Sep-05 23:25N 06°04' E 001°17'0 0.0
2017-Sep-05 22:51N 06°04' E 001°17'0 0.0
2017-Sep-05 20:58N 06°04' E 001°17'0 0.0
2017-Sep-05 19:59N 06°04' E 001°17'1 0.6
2017-Sep-05 17:45N 06°03' E 001°18'0 0.0
2017-Sep-05 17:30N 06°03' E 001°18'3 1.3
2017-Sep-05 15:20N 06°01' E 001°16'0 0.0
2017-Sep-05 15:00N 06°01' E 001°16'0 0.0
2017-Sep-05 14:29N 06°01' E 001°16'  
Track history (hours):
 
Tides and Currents Weather Stations Pressure Air Temp Water Temp Dewpoint Dewpoint Depression Visibility Wind Speed Wind Dir Waves Ship Positions

Sea Duck

Last reported at 2017-Sep-13 22:19 UTC. Time now 2017-Sep-22 02:44 UTC.
Position N 06°01' E 001°13'.
Warning: this ship's position is 8 days out of date.

Length 120 m; draft 7.8 m.

Type: Ship (hazmat cat B). MMSI: 229858000.

Date/timePositionNaut miles runAvg speedWind from/ knotsBaromVisibWave heightAir tempDewpointWater temp
2017-Sep-13 22:19N 06°01' E 001°13'  
2017-Sep-10 01:10N 06°00' E 001°16'0 0.0
2017-Sep-10 00:58N 06°00' E 001°16'0 0.0
2017-Sep-10 00:28N 06°00' E 001°16'0 0.0
2017-Sep-09 23:37N 06°00' E 001°16'0 0.6
2017-Sep-09 23:28N 06°00' E 001°16'1 3.1
2017-Sep-09 23:01N 06°01' E 001°17'1 2.2
2017-Sep-09 22:29N 06°01' E 001°18'0 0.0
2017-Sep-09 21:59N 06°01' E 001°18'0 0.0
2017-Sep-09 21:29N 06°01' E 001°18'0 0.0
2017-Sep-09 20:41N 06°01' E 001°18'0 0.0
2017-Sep-09 20:26N 06°01' E 001°18'0 0.0
2017-Sep-09 19:56N 06°01' E 001°18'0 0.0
2017-Sep-09 19:29N 06°01' E 001°18'0 0.0
2017-Sep-09 18:26N 06°01' E 001°18'0 0.0
2017-Sep-09 17:59N 06°01' E 001°18'0 0.0
2017-Sep-09 15:50N 06°01' E 001°18'4 0.2
2017-Sep-08 23:19N 06°04' E 001°17'  
2017-Sep-05 23:25N 06°04' E 001°17'0 0.0
2017-Sep-05 22:51N 06°04' E 001°17'0 0.0
2017-Sep-05 20:58N 06°04' E 001°17'0 0.0
2017-Sep-05 19:59N 06°04' E 001°17'1 0.6
2017-Sep-05 17:45N 06°03' E 001°18'0 0.0
2017-Sep-05 17:30N 06°03' E 001°18'3 1.3
2017-Sep-05 15:20N 06°01' E 001°16'0 0.0
2017-Sep-05 15:00N 06°01' E 001°16'0 0.0
2017-Sep-05 14:29N 06°01' E 001°16'  

Dump ship's entire track history